createdAt,value
2024-04-18T00:01:01.661Z,100260.56
2024-04-18T00:03:28.461Z,100259.69
2024-04-18T00:05:55.141Z,100264.91
2024-04-18T00:08:21.680Z,100264.88
2024-04-18T00:10:50.364Z,100270.00
2024-04-18T00:13:18.379Z,100264.91
2024-04-18T00:15:44.988Z,100270.09
2024-04-18T00:18:11.841Z,100265.53
2024-04-18T00:20:38.486Z,100268.09
2024-04-18T00:23:05.030Z,100269.97
2024-04-18T00:25:32.950Z,100265.50
2024-04-18T00:27:59.603Z,100264.00
2024-04-18T00:30:26.436Z,100264.81
2024-04-18T00:32:53.175Z,100256.22
2024-04-18T00:35:19.796Z,100265.81
2024-04-18T00:37:46.436Z,100270.06
2024-04-18T00:40:12.992Z,100270.09
2024-04-18T00:42:40.164Z,100269.13
2024-04-18T00:45:07.640Z,100269.16
2024-04-18T00:47:35.086Z,100270.88
2024-04-18T00:50:02.044Z,100269.22
2024-04-18T00:52:29.023Z,100266.66
2024-04-18T00:54:56.865Z,100270.94
2024-04-18T00:57:24.178Z,100272.84
2024-04-18T00:59:52.789Z,100278.78
2024-04-18T01:02:24.792Z,100277.78
2024-04-18T01:04:51.661Z,100272.81
2024-04-18T01:07:18.253Z,100278.03
2024-04-18T01:09:44.916Z,100272.69
2024-04-18T01:12:11.523Z,100273.59
2024-04-18T01:14:38.194Z,100270.13
2024-04-18T01:17:05.727Z,100278.13
2024-04-18T01:19:32.598Z,100279.75
2024-04-18T01:22:03.627Z,100271.22
2024-04-18T01:24:32.881Z,100279.06
2024-04-18T01:26:59.571Z,100279.13
2024-04-18T01:29:28.062Z,100277.38
2024-04-18T01:31:54.794Z,100275.50
2024-04-18T01:34:21.494Z,100278.34
2024-04-18T01:36:49.443Z,100272.97
2024-04-18T01:39:16.298Z,100269.44
2024-04-18T01:41:42.880Z,100273.03
2024-04-18T01:44:09.701Z,100277.41
2024-04-18T01:46:36.309Z,100274.09
2024-04-18T01:49:02.911Z,100277.47
2024-04-18T01:51:29.515Z,100273.03
2024-04-18T01:53:56.116Z,100278.13
2024-04-18T01:56:22.759Z,100264.34
2024-04-18T01:58:49.495Z,100265.03
2024-04-18T02:01:16.406Z,100269.38
2024-04-18T02:03:43.210Z,100268.69
2024-04-18T02:06:09.814Z,100266.00
2024-04-18T02:08:36.395Z,100267.84
2024-04-18T02:11:02.973Z,100266.22
2024-04-18T02:13:29.814Z,100272.28
2024-04-18T02:15:56.396Z,100276.72
2024-04-18T02:18:23.123Z,100275.00
2024-04-18T02:20:49.734Z,100279.41
2024-04-18T02:23:16.352Z,100281.09
2024-04-18T02:25:42.884Z,100276.97
2024-04-18T02:28:09.427Z,100276.91
2024-04-18T02:30:36.035Z,100283.00
2024-04-18T02:33:02.816Z,100283.88
2024-04-18T02:35:29.638Z,100285.63
2024-04-18T02:37:56.317Z,100287.41
2024-04-18T02:40:22.875Z,100291.78
2024-04-18T02:42:49.491Z,100289.28
2024-04-18T02:45:16.247Z,100290.22
2024-04-18T02:47:42.868Z,100281.69
2024-04-18T02:50:09.472Z,100285.06
2024-04-18T02:52:36.032Z,100291.22
2024-04-18T02:55:02.600Z,100292.06
2024-04-18T02:57:29.691Z,100289.44
2024-04-18T02:59:58.396Z,100291.09
2024-04-18T03:02:25.744Z,100296.28
2024-04-18T03:04:52.637Z,100291.09
2024-04-18T03:07:19.327Z,100295.44
2024-04-18T03:09:45.910Z,100292.06
2024-04-18T03:12:12.587Z,100292.09
2024-04-18T03:14:43.325Z,100293.09
2024-04-18T03:17:10.658Z,100294.69
2024-04-18T03:19:37.267Z,100298.22
2024-04-18T03:22:03.905Z,100294.69
2024-04-18T03:24:30.491Z,100293.72
2024-04-18T03:26:57.068Z,100291.22
2024-04-18T03:29:23.728Z,100293.78
2024-04-18T03:31:51.764Z,100296.38
2024-04-18T03:34:19.413Z,100303.31
2024-04-18T03:36:52.696Z,100307.63
2024-04-18T03:39:22.618Z,100308.50
2024-04-18T03:41:49.688Z,100317.25
2024-04-18T03:44:16.439Z,100318.91
2024-04-18T03:46:43.058Z,100316.13
2024-04-18T03:49:10.686Z,100317.19
2024-04-18T03:51:37.645Z,100321.50
2024-04-18T03:54:04.328Z,100321.53
2024-04-18T03:56:30.930Z,100324.03
2024-04-18T03:58:57.545Z,100332.06
2024-04-18T04:01:27.996Z,100339.94
2024-04-18T04:03:54.827Z,100343.41
2024-04-18T04:06:22.382Z,100341.69
2024-04-18T04:08:49.593Z,100342.63
2024-04-18T04:11:17.248Z,100346.03
2024-04-18T04:13:43.913Z,100347.84
2024-04-18T04:16:10.576Z,100353.94
2024-04-18T04:18:37.770Z,100349.81
2024-04-18T04:21:04.704Z,100353.94
2024-04-18T04:23:31.670Z,100352.25
2024-04-18T04:25:58.226Z,100350.41
2024-04-18T04:28:24.768Z,100353.91
2024-04-18T04:30:51.450Z,100359.00
2024-04-18T04:33:18.048Z,100358.16
2024-04-18T04:35:44.612Z,100369.31
2024-04-18T04:38:11.239Z,100369.25
2024-04-18T04:40:37.832Z,100368.44
2024-04-18T04:43:07.158Z,100371.91
2024-04-18T04:45:33.838Z,100382.09
2024-04-18T04:48:00.470Z,100370.00
2024-04-18T04:50:27.237Z,100366.63
2024-04-18T04:52:53.783Z,100366.63
2024-04-18T04:55:20.360Z,100370.00
2024-04-18T04:57:46.979Z,100374.34
2024-04-18T05:00:14.039Z,100372.44
2024-04-18T05:02:43.582Z,100370.78
2024-04-18T05:05:10.978Z,100373.28
2024-04-18T05:07:37.506Z,100369.75
2024-04-18T05:10:04.516Z,100368.88
2024-04-18T05:12:31.109Z,100379.09
2024-04-18T05:14:57.678Z,100377.50
2024-04-18T05:17:26.023Z,100381.88
2024-04-18T05:19:52.799Z,100383.66
2024-04-18T05:22:19.351Z,100389.66
2024-04-18T05:24:45.932Z,100385.41
2024-04-18T05:27:12.526Z,100390.59
2024-04-18T05:29:58.000Z,100394.06
2024-04-18T05:32:24.816Z,100395.66
2024-04-18T05:34:51.422Z,100389.56
2024-04-18T05:37:22.669Z,100391.03
2024-04-18T05:39:49.804Z,100394.16
2024-04-18T05:42:16.540Z,100398.34
2024-04-18T05:44:43.272Z,100395.59
2024-04-18T05:47:10.218Z,100398.94
2024-04-18T05:49:37.720Z,100397.84
2024-04-18T05:52:04.643Z,100403.97
2024-04-18T05:54:32.016Z,100394.97
2024-04-18T05:56:58.577Z,100400.94
2024-04-18T05:59:25.102Z,100401.88
2024-04-18T06:01:51.685Z,100393.81
2024-04-18T06:04:18.241Z,100393.66
2024-04-18T06:06:45.850Z,100395.28
2024-04-18T06:09:12.466Z,100400.81
2024-04-18T06:11:45.699Z,100393.69
2024-04-18T06:14:12.416Z,100400.03
2024-04-18T06:16:39.008Z,100392.50
2024-04-18T06:19:05.607Z,100398.66
2024-04-18T06:21:32.262Z,100397.72
2024-04-18T06:23:58.823Z,100404.03
2024-04-18T06:26:25.515Z,100410.09
2024-04-18T06:28:52.458Z,100406.84
2024-04-18T06:31:19.791Z,100413.72
2024-04-18T06:33:47.919Z,100406.09
2024-04-18T06:36:14.767Z,100406.34
2024-04-18T06:38:41.332Z,100414.91
2024-04-18T06:41:08.041Z,100416.94
2024-04-18T06:43:34.930Z,100412.53
2024-04-18T06:46:02.134Z,100427.88
2024-04-18T06:48:28.999Z,100434.09
2024-04-18T06:50:55.782Z,100428.00
2024-04-18T06:53:22.406Z,100434.09
2024-04-18T06:55:49.047Z,100441.97
2024-04-18T06:58:15.736Z,100440.13
2024-04-18T07:00:43.270Z,100448.75
2024-04-18T07:03:13.118Z,100446.28
2024-04-18T07:05:40.351Z,100451.53
2024-04-18T07:08:07.267Z,100460.00
2024-04-18T07:10:34.936Z,100461.19
2024-04-18T07:13:01.852Z,100457.06
2024-04-18T07:15:28.605Z,100463.91
2024-04-18T07:17:57.397Z,100464.50
2024-04-18T07:20:24.170Z,100473.75
2024-04-18T07:22:51.687Z,100472.97
2024-04-18T07:25:18.366Z,100484.22
2024-04-18T07:27:45.514Z,100468.50
2024-04-18T07:30:12.252Z,100475.94
2024-04-18T07:32:38.938Z,100480.16
2024-04-18T07:35:06.084Z,100471.50
2024-04-18T07:37:32.989Z,100477.78
2024-04-18T07:40:02.532Z,100479.94
2024-04-18T07:42:29.265Z,100483.03
2024-04-18T07:44:55.920Z,100475.44
2024-04-18T07:47:25.053Z,100479.19
2024-04-18T07:49:51.835Z,100477.53
2024-04-18T07:52:18.526Z,100483.34
2024-04-18T07:54:45.613Z,100481.50
2024-04-18T07:57:13.737Z,100473.56
2024-04-18T07:59:42.008Z,100474.00
2024-04-18T08:02:10.426Z,100476.63
2024-04-18T08:04:52.970Z,100476.41
2024-04-18T08:07:27.029Z,100472.38
2024-04-18T08:09:59.701Z,100472.41
2024-04-18T08:12:32.338Z,100478.59
2024-04-18T08:15:07.329Z,100474.34
2024-04-18T08:17:37.698Z,100480.66
2024-04-18T08:20:05.862Z,100482.66
2024-04-18T08:22:33.212Z,100481.34
2024-04-18T08:24:59.812Z,100488.53
2024-04-18T08:27:26.394Z,100500.59
2024-04-18T08:29:52.966Z,100497.31
2024-04-18T08:32:19.540Z,100500.91
2024-04-18T08:34:48.063Z,100500.38
2024-04-18T08:37:15.135Z,100512.06
2024-04-18T08:39:41.822Z,100505.63
2024-04-18T08:42:12.943Z,100502.47
2024-04-18T08:44:39.586Z,100503.91
2024-04-18T08:47:08.771Z,100509.56
2024-04-18T08:49:38.721Z,100504.66
2024-04-18T08:52:07.737Z,100498.69
2024-04-18T08:54:35.060Z,100494.69
2024-04-18T08:57:05.593Z,100487.16
2024-04-18T08:59:32.761Z,100488.66
2024-04-18T09:02:00.276Z,100488.47
2024-04-18T09:04:26.882Z,100479.03
2024-04-18T09:06:53.560Z,100479.81
2024-04-18T09:09:23.829Z,100482.78
2024-04-18T09:11:50.614Z,100474.34
2024-04-18T09:14:17.206Z,100473.97
2024-04-18T09:16:44.635Z,100472.88
2024-04-18T09:19:13.322Z,100475.25
2024-04-18T09:21:40.670Z,100470.66
2024-04-18T09:24:07.486Z,100476.75
2024-04-18T09:26:34.177Z,100472.44
2024-04-18T09:29:01.558Z,100480.63
2024-04-18T09:31:37.695Z,100478.25
2024-04-18T09:34:10.686Z,100473.34
2024-04-18T09:36:41.339Z,100485.53
2024-04-18T09:39:15.095Z,100481.69
2024-04-18T09:41:50.076Z,100473.50
2024-04-18T09:44:21.699Z,100479.78
2024-04-18T09:46:51.794Z,100473.34
2024-04-18T09:49:20.206Z,100476.59
2024-04-18T09:51:49.453Z,100476.91
2024-04-18T09:54:17.243Z,100481.06
2024-04-18T09:56:47.243Z,100482.75
2024-04-18T09:59:15.404Z,100487.28
2024-04-18T10:01:43.646Z,100482.19
2024-04-18T10:04:11.253Z,100484.97
2024-04-18T10:06:41.206Z,100475.53
2024-04-18T10:09:10.142Z,100471.81
2024-04-18T10:11:37.775Z,100455.38
2024-04-18T10:14:04.836Z,100472.75
2024-04-18T10:16:32.194Z,100474.56
2024-04-18T10:19:09.927Z,100472.47
2024-04-18T10:21:43.284Z,100461.50
2024-04-18T10:24:19.885Z,100462.78
2024-04-18T10:26:46.483Z,100466.25
2024-04-18T10:29:27.818Z,100466.56
2024-04-18T10:32:01.239Z,100456.78
2024-04-18T10:34:28.022Z,100460.88
2024-04-18T10:36:55.230Z,100460.66
2024-04-18T10:39:34.936Z,100466.56
2024-04-18T10:42:09.580Z,100472.94
2024-04-18T10:44:37.751Z,100464.72
2024-04-18T10:47:05.478Z,100462.47
2024-04-18T10:49:32.167Z,100468.53
2024-04-18T10:51:59.328Z,100470.97
2024-04-18T10:54:25.996Z,100468.63
2024-04-18T10:56:53.339Z,100464.56
2024-04-18T10:59:20.776Z,100473.91
2024-04-18T11:01:47.398Z,100468.56
2024-04-18T11:04:14.105Z,100472.75
2024-04-18T11:06:41.023Z,100476.53
2024-04-18T11:09:08.519Z,100476.13
2024-04-18T11:11:39.460Z,100475.53
2024-04-18T11:14:08.673Z,100474.66
2024-04-18T11:16:36.169Z,100474.88
2024-04-18T11:19:02.806Z,100483.13
2024-04-18T11:21:30.525Z,100485.34
2024-04-18T11:23:57.211Z,100485.34
2024-04-18T11:26:27.099Z,100493.69
2024-04-18T11:28:56.893Z,100477.69
2024-04-18T11:31:24.189Z,100481.44
2024-04-18T11:33:51.075Z,100473.56
2024-04-18T11:36:17.820Z,100477.34
2024-04-18T11:38:44.406Z,100483.16
2024-04-18T11:41:12.357Z,100479.97
2024-04-18T11:43:39.091Z,100485.16
2024-04-18T11:46:05.770Z,100498.03
2024-04-18T11:48:32.542Z,100492.09
2024-04-18T11:50:59.275Z,100495.03
2024-04-18T11:53:25.964Z,100510.63
2024-04-18T11:55:54.818Z,100506.88
2024-04-18T11:58:22.871Z,100507.13
2024-04-18T12:00:49.517Z,100503.97
2024-04-18T12:03:16.262Z,100494.34
2024-04-18T12:05:43.295Z,100491.00
2024-04-18T12:08:10.053Z,100492.91
2024-04-18T12:10:36.652Z,100494.69
2024-04-18T12:13:03.439Z,100481.31
2024-04-18T12:15:32.787Z,100497.56
2024-04-18T12:17:59.471Z,100489.53
2024-04-18T12:20:27.495Z,100488.66
2024-04-18T12:22:54.103Z,100479.63
2024-04-18T12:25:22.595Z,100502.13
2024-04-18T12:27:50.723Z,100488.97
2024-04-18T12:30:17.305Z,100478.38
2024-04-18T12:32:44.009Z,100474.59
2024-04-18T12:35:11.511Z,100468.22
2024-04-18T12:37:38.085Z,100475.09
2024-04-18T12:40:06.551Z,100469.88
2024-04-18T12:42:35.191Z,100465.91
2024-04-18T12:45:03.737Z,100472.75
2024-04-18T12:47:30.426Z,100460.78
2024-04-18T12:49:57.155Z,100459.38
2024-04-18T12:52:23.881Z,100461.69
2024-04-18T12:54:50.621Z,100460.84
2024-04-18T12:57:17.405Z,100465.69
2024-04-18T12:59:44.050Z,100466.16
2024-04-18T13:02:12.955Z,100465.75
2024-04-18T13:04:39.780Z,100465.19
2024-04-18T13:07:07.210Z,100472.09
2024-04-18T13:09:34.451Z,100464.03
2024-04-18T13:12:03.217Z,100457.28
2024-04-18T13:14:29.960Z,100462.44
2024-04-18T13:16:56.666Z,100460.84
2024-04-18T13:19:23.512Z,100464.22
2024-04-18T13:21:50.089Z,100463.97
2024-04-18T13:24:19.964Z,100471.84
2024-04-18T13:26:46.605Z,100475.28
2024-04-18T13:29:13.223Z,100475.31
2024-04-18T13:31:39.913Z,100469.63
2024-04-18T13:34:06.565Z,100471.78
2024-04-18T13:36:33.530Z,100483.41
2024-04-18T13:39:00.279Z,100468.94
2024-04-18T13:41:28.979Z,100468.59
2024-04-18T13:43:57.019Z,100469.59
2024-04-18T13:46:23.635Z,100472.22
2024-04-18T13:48:50.465Z,100484.66
2024-04-18T13:51:19.962Z,100477.94
2024-04-18T13:53:46.798Z,100477.09
2024-04-18T13:56:13.390Z,100481.88
2024-04-18T13:58:39.989Z,100482.94
2024-04-18T14:01:06.600Z,100485.66
2024-04-18T14:03:33.324Z,100486.25
2024-04-18T14:06:00.192Z,100482.44
2024-04-18T14:08:26.805Z,100480.63
2024-04-18T14:10:53.392Z,100482.44
2024-04-18T14:13:24.451Z,100478.41
2024-04-18T14:16:11.042Z,100467.19
2024-04-18T14:18:49.787Z,100476.69
2024-04-18T14:21:17.901Z,100475.28
2024-04-18T14:23:44.661Z,100478.03
2024-04-18T14:26:11.289Z,100482.06
2024-04-18T14:28:37.882Z,100477.44
2024-04-18T14:31:04.615Z,100477.91
2024-04-18T14:33:31.526Z,100495.72
2024-04-18T14:35:58.531Z,100482.44
2024-04-18T14:38:25.159Z,100478.72
2024-04-18T14:41:01.628Z,100484.66
2024-04-18T14:43:36.091Z,100483.91
2024-04-18T14:46:02.758Z,100481.59
2024-04-18T14:48:29.446Z,100489.00
2024-04-18T14:50:56.064Z,100483.97
2024-04-18T14:53:25.725Z,100477.28
2024-04-18T14:55:54.112Z,100490.94
2024-04-18T14:58:20.779Z,100489.03
2024-04-18T15:00:52.852Z,100496.09
2024-04-18T15:03:20.381Z,100483.69
2024-04-18T15:05:57.518Z,100489.06
2024-04-18T15:08:24.549Z,100485.75
2024-04-18T15:10:51.571Z,100490.50
2024-04-18T15:13:18.217Z,100485.28
2024-04-18T15:15:45.070Z,100487.97
2024-04-18T15:18:13.620Z,100492.06
2024-04-18T15:20:40.774Z,100486.22
2024-04-18T15:23:07.615Z,100481.25
2024-04-18T15:25:34.161Z,100481.69
2024-04-18T15:28:00.790Z,100477.88
2024-04-18T15:30:27.469Z,100481.88
2024-04-18T15:32:54.144Z,100483.59
2024-04-18T15:35:20.870Z,100479.09
2024-04-18T15:37:47.454Z,100476.19
2024-04-18T15:40:16.894Z,100478.75
2024-04-18T15:42:44.298Z,100486.50
2024-04-18T15:45:10.889Z,100478.38
2024-04-18T15:47:37.999Z,100481.72
2024-04-18T15:50:04.966Z,100491.81
2024-04-18T15:52:34.007Z,100492.16
2024-04-18T15:55:08.974Z,100487.44
2024-04-18T15:57:42.565Z,100483.69
2024-04-18T16:00:09.478Z,100495.63
2024-04-18T16:02:36.054Z,100494.38
2024-04-18T16:05:03.275Z,100488.66
2024-04-18T16:07:30.124Z,100492.59
2024-04-18T16:09:56.871Z,100493.69
2024-04-18T16:12:23.617Z,100488.03
2024-04-18T16:14:50.259Z,100497.06
2024-04-18T16:17:16.823Z,100501.28
2024-04-18T16:19:43.383Z,100499.56
2024-04-18T16:22:10.006Z,100496.91
2024-04-18T16:24:36.839Z,100498.91
2024-04-18T16:27:03.899Z,100504.25
2024-04-18T16:29:30.494Z,100506.91
2024-04-18T16:31:57.207Z,100510.81
2024-04-18T16:34:23.827Z,100507.31
2024-04-18T16:37:04.419Z,100501.09
2024-04-18T16:39:37.212Z,100506.72
2024-04-18T16:42:04.073Z,100512.50
2024-04-18T16:44:30.672Z,100507.31
2024-04-18T16:46:57.257Z,100504.13
2024-04-18T16:49:23.888Z,100512.38
2024-04-18T16:51:52.402Z,100510.75
2024-04-18T16:54:19.061Z,100510.22
2024-04-18T16:56:45.719Z,100514.19
2024-04-18T16:59:13.978Z,100513.50
2024-04-18T17:01:40.791Z,100512.53
2024-04-18T17:04:07.466Z,100510.00
2024-04-18T17:06:45.158Z,100513.34
2024-04-18T17:09:15.175Z,100517.63
2024-04-18T17:11:41.868Z,100510.94
2024-04-18T17:14:08.558Z,100516.91
2024-04-18T17:16:35.155Z,100506.97
2024-04-18T17:19:01.863Z,100519.00
2024-04-18T17:21:28.561Z,100521.34
2024-04-18T17:23:57.234Z,100515.44
2024-04-18T17:26:25.951Z,100525.97
2024-04-18T17:28:54.813Z,100525.94
2024-04-18T17:31:21.701Z,100532.47
2024-04-18T17:33:48.529Z,100522.22
2024-04-18T17:36:15.549Z,100522.22
2024-04-18T17:38:43.690Z,100526.47
2024-04-18T17:41:10.376Z,100524.19
2024-04-18T17:43:37.004Z,100524.34
2024-04-18T17:46:03.832Z,100520.84
2024-04-18T17:48:30.681Z,100527.94
2024-04-18T17:50:57.544Z,100518.47
2024-04-18T17:53:24.150Z,100523.66
2024-04-18T17:55:51.442Z,100522.84
2024-04-18T17:58:19.195Z,100522.47
2024-04-18T18:00:46.111Z,100526.91
2024-04-18T18:03:12.849Z,100528.56
2024-04-18T18:05:39.678Z,100526.91
2024-04-18T18:08:06.703Z,100523.56
2024-04-18T18:10:33.334Z,100535.06
2024-04-18T18:12:59.905Z,100540.31
2024-04-18T18:15:28.036Z,100540.41
2024-04-18T18:17:54.734Z,100546.50
2024-04-18T18:20:21.332Z,100536.28
2024-04-18T18:22:47.930Z,100540.41
2024-04-18T18:25:14.535Z,100540.22
2024-04-18T18:27:41.154Z,100540.22
2024-04-18T18:30:08.171Z,100542.09
2024-04-18T18:32:36.412Z,100542.03
2024-04-18T18:35:03.168Z,100535.56
2024-04-18T18:37:29.758Z,100536.84
2024-04-18T18:39:56.349Z,100540.31
2024-04-18T18:42:24.027Z,100544.44
2024-04-18T18:44:50.604Z,100538.66
2024-04-18T18:47:17.225Z,100540.53
2024-04-18T18:49:43.850Z,100544.72
2024-04-18T18:52:11.069Z,100539.50
2024-04-18T18:54:39.492Z,100544.06
2024-04-18T18:57:08.355Z,100544.78
2024-04-18T18:59:35.250Z,100539.75
2024-04-18T19:02:01.842Z,100533.81
2024-04-18T19:04:28.573Z,100537.41
2024-04-18T19:06:55.721Z,100537.16
2024-04-18T19:09:23.520Z,100535.31
2024-04-18T19:11:51.004Z,100534.53
2024-04-18T19:14:17.631Z,100530.19
2024-04-18T19:16:44.236Z,100528.41
2024-04-18T19:19:10.878Z,100531.00
2024-04-18T19:21:37.547Z,100529.47
2024-04-18T19:24:04.156Z,100522.56
2024-04-18T19:26:31.140Z,100518.28
2024-04-18T19:28:57.867Z,100513.03
2024-04-18T19:31:24.594Z,100513.03
2024-04-18T19:33:51.384Z,100508.91
2024-04-18T19:36:18.378Z,100503.78
2024-04-18T19:38:45.935Z,100506.66
2024-04-18T19:41:12.704Z,100503.16
2024-04-18T19:43:39.319Z,100504.94
2024-04-18T19:46:05.911Z,100505.88
2024-04-18T19:48:33.795Z,100498.03
2024-04-18T19:51:00.681Z,100495.59
2024-04-18T19:53:27.861Z,100499.09
2024-04-18T19:55:58.328Z,100499.00
2024-04-18T19:58:25.149Z,100492.19
2024-04-18T20:00:52.938Z,100487.75
2024-04-18T20:03:19.715Z,100492.88
2024-04-18T20:05:46.768Z,100481.69
2024-04-18T20:08:14.680Z,100478.25
2024-04-18T20:10:41.388Z,100477.38
2024-04-18T20:13:08.010Z,100481.81
2024-04-18T20:15:34.632Z,100477.41
2024-04-18T20:18:01.462Z,100480.88
2024-04-18T20:20:28.177Z,100480.16
2024-04-18T20:22:55.207Z,100482.00
2024-04-18T20:25:21.984Z,100469.75
2024-04-18T20:27:49.532Z,100463.03
2024-04-18T20:30:16.679Z,100462.06
2024-04-18T20:32:43.463Z,100448.34
2024-04-18T20:35:10.178Z,100449.16
2024-04-18T20:37:36.773Z,100442.19
2024-04-18T20:40:03.529Z,100450.78
2024-04-18T20:42:30.324Z,100454.34
2024-04-18T20:44:56.878Z,100454.38
2024-04-18T20:47:23.478Z,100447.56
2024-04-18T20:49:50.060Z,100444.06
2024-04-18T20:52:16.597Z,100453.59
2024-04-18T20:54:43.480Z,100442.41
2024-04-18T20:57:10.152Z,100440.69
2024-04-18T20:59:36.765Z,100443.28
2024-04-18T21:02:03.457Z,100434.59
2024-04-18T21:04:30.468Z,100426.78
2024-04-18T21:06:58.220Z,100427.66
2024-04-18T21:09:24.906Z,100421.59
2024-04-18T21:11:52.131Z,100427.59
2024-04-18T21:14:18.829Z,100423.31
2024-04-18T21:16:45.546Z,100419.81
2024-04-18T21:19:14.301Z,100415.50
2024-04-18T21:21:41.869Z,100417.31
2024-04-18T21:24:08.685Z,100413.91
2024-04-18T21:26:35.434Z,100409.69
2024-04-18T21:29:03.175Z,100413.09
2024-04-18T21:31:29.793Z,100414.88
2024-04-18T21:33:56.574Z,100408.91
2024-04-18T21:36:23.209Z,100404.47
2024-04-18T21:38:58.099Z,100409.69
2024-04-18T21:41:29.602Z,100411.41
2024-04-18T21:43:57.220Z,100408.72
2024-04-18T21:46:25.262Z,100411.41
2024-04-18T21:48:51.963Z,100410.63
2024-04-18T21:51:18.785Z,100402.91
2024-04-18T21:53:45.458Z,100396.03
2024-04-18T21:56:12.089Z,100401.19
2024-04-18T21:58:38.654Z,100402.03
2024-04-18T22:01:05.349Z,100396.06
2024-04-18T22:03:32.174Z,100394.28
2024-04-18T22:05:59.202Z,100398.63
2024-04-18T22:08:26.057Z,100388.22
2024-04-18T22:10:52.925Z,100388.25
2024-04-18T22:13:20.106Z,100386.56
2024-04-18T22:15:46.842Z,100388.34
2024-04-18T22:18:13.644Z,100389.16
2024-04-18T22:20:42.404Z,100383.06
2024-04-18T22:23:09.753Z,100387.38
2024-04-18T22:25:37.633Z,100381.31
2024-04-18T22:28:04.496Z,100373.63
2024-04-18T22:30:31.190Z,100373.69
2024-04-18T22:32:57.939Z,100371.09
2024-04-18T22:35:24.729Z,100372.75
2024-04-18T22:37:51.344Z,100369.44
2024-04-18T22:40:17.934Z,100360.75
2024-04-18T22:42:46.092Z,100356.44
2024-04-18T22:45:12.713Z,100340.09
2024-04-18T22:47:39.457Z,100346.06
2024-04-18T22:50:06.657Z,100336.59
2024-04-18T22:52:34.074Z,100335.88
2024-04-18T22:55:00.791Z,100330.63
2024-04-18T22:57:27.459Z,100324.53
2024-04-18T22:59:55.170Z,100334.03
2024-04-18T23:02:21.812Z,100325.44
2024-04-18T23:04:48.803Z,100322.88
2024-04-18T23:07:15.384Z,100326.34
2024-04-18T23:09:42.057Z,100309.97
2024-04-18T23:12:09.286Z,100305.56
2024-04-18T23:14:35.877Z,100303.84
2024-04-18T23:17:02.526Z,100303.06
2024-04-18T23:19:29.121Z,100295.25
2024-04-18T23:21:55.689Z,100292.63
2024-04-18T23:24:22.327Z,100290.13
2024-04-18T23:26:49.671Z,100291.03
2024-04-18T23:29:16.252Z,100290.88
2024-04-18T23:31:43.135Z,100290.06
2024-04-18T23:34:09.740Z,100283.16
2024-04-18T23:36:36.341Z,100281.50
2024-04-18T23:39:03.054Z,100284.03
2024-04-18T23:41:29.640Z,100274.44
2024-04-18T23:43:56.217Z,100278.78
2024-04-18T23:46:22.947Z,100279.59
2024-04-18T23:48:49.653Z,100272.66
2024-04-18T23:51:16.333Z,100263.97
2024-04-18T23:53:42.956Z,100264.06
2024-04-18T23:56:09.516Z,100254.47
2024-04-18T23:58:36.265Z,100255.28
